Time;durP1;ratioP1;P1;durP2;ratioP2;P2;SDS_P1;SDS_P2;PMS_P1;PMS_P2;Temp;Humidity;BMP_temperature;BMP_pressure;BME280_temperature;BME280_humidity;BME280_pressure;Samples;Min_cycle;Max_cycle;Signal;HPM_P1;HPM_P2
2023/09/28 00:03:55;;;;;;;1.58;1.48;;;;;;;;;;10451603;28;20257;-77
2023/09/28 00:08:59;;;;;;;1.63;1.52;;;;;;;;;;10493253;28;20048;-78
2023/09/28 00:14:04;;;;;;;3.47;1.83;;;;;;;;;;10494997;28;20056;-77
2023/09/28 00:19:07;;;;;;;1.70;1.52;;;;;;;;;;10495728;28;20045;-77
2023/09/28 00:24:11;;;;;;;2.25;1.75;;;;;;;;;;10492345;28;20238;-77
2023/09/28 00:29:16;;;;;;;2.88;1.73;;;;;;;;;;10496034;28;20040;-77
2023/09/28 00:34:19;;;;;;;1.48;1.38;;;;;;;;;;10482586;28;20419;-77
2023/09/28 00:39:23;;;;;;;3.05;1.58;;;;;;;;;;10496428;28;20387;-77
2023/09/28 00:44:28;;;;;;;1.70;1.40;;;;;;;;;;10479835;28;20032;-77
2023/09/28 00:49:31;;;;;;;3.20;1.33;;;;;;;;;;10497963;28;20386;-77
2023/09/28 00:54:35;;;;;;;2.83;1.45;;;;;;;;;;10500373;28;20385;-77
2023/09/28 00:59:39;;;;;;;3.28;1.25;;;;;;;;;;10502737;28;20048;-77
2023/09/28 01:04:42;;;;;;;1.58;1.27;;;;;;;;;;10484574;28;20040;-77
2023/09/28 01:09:46;;;;;;;2.53;1.20;;;;;;;;;;10482047;28;20432;-77
2023/09/28 01:14:53;;;;;;;2.15;1.33;;;;;;;;;;10495568;28;20036;-77
2023/09/28 01:19:58;;;;;;;2.10;1.40;;;;;;;;;;10482151;28;20043;-77
2023/09/28 01:25:04;;;;;;;1.85;1.70;;;;;;;;;;10466697;28;20032;-77
2023/09/28 01:30:11;;;;;;;2.40;1.75;;;;;;;;;;10492583;28;20045;-77
2023/09/28 01:35:14;;;;;;;2.38;1.90;;;;;;;;;;10494123;28;20047;-77
2023/09/28 01:40:20;;;;;;;1.73;1.48;;;;;;;;;;10490111;22;20136;-76
2023/09/28 01:45:23;;;;;;;1.75;1.42;;;;;;;;;;10465513;28;20036;-76
2023/09/28 01:50:27;;;;;;;1.80;1.40;;;;;;;;;;10471334;28;20044;-76
2023/09/28 01:55:32;;;;;;;1.48;1.38;;;;;;;;;;10492858;28;20040;-76
2023/09/28 02:00:36;;;;;;;1.48;1.38;;;;;;;;;;10469954;28;20041;-76
2023/09/28 02:05:40;;;;;;;1.48;1.38;;;;;;;;;;10471055;28;20493;-76
2023/09/28 02:10:45;;;;;;;1.65;1.50;;;;;;;;;;10488580;28;20036;-77
2023/09/28 02:15:49;;;;;;;2.28;1.48;;;;;;;;;;10470297;28;20040;-76
2023/09/28 02:20:52;;;;;;;1.55;1.38;;;;;;;;;;10491630;28;20128;-77
2023/09/28 02:26:06;;;;;;;2.65;1.58;;;;;;;;;;10467985;28;20037;-76
2023/09/28 02:31:09;;;;;;;1.85;1.52;;;;;;;;;;10482406;28;20417;-76
2023/09/28 02:36:12;;;;;;;1.45;1.35;;;;;;;;;;10487173;28;20056;-76
2023/09/28 02:41:18;;;;;;;2.67;1.52;;;;;;;;;;10470502;28;20048;-76
2023/09/28 02:46:22;;;;;;;2.63;1.07;;;;;;;;;;10487850;28;20070;-76
2023/09/28 02:51:26;;;;;;;1.67;1.27;;;;;;;;;;10487256;28;20485;-76
2023/09/28 02:56:31;;;;;;;2.28;1.67;;;;;;;;;;10487242;28;20054;-76
2023/09/28 03:01:34;;;;;;;1.23;1.10;;;;;;;;;;10491972;28;20036;-76
2023/09/28 03:06:40;;;;;;;2.50;1.65;;;;;;;;;;10468831;28;20094;-76
2023/09/28 03:11:45;;;;;;;1.67;1.30;;;;;;;;;;10490975;28;20036;-76
2023/09/28 03:16:49;;;;;;;2.37;1.40;;;;;;;;;;10493431;28;20037;-76
2023/09/28 03:21:53;;;;;;;1.48;1.05;;;;;;;;;;10498129;28;20041;-76
2023/09/28 03:26:59;;;;;;;1.45;1.35;;;;;;;;;;10495180;28;20040;-76
2023/09/28 03:32:11;;;;;;;1.88;1.20;;;;;;;;;;10469310;28;20041;-77
2023/09/28 03:37:18;;;;;;;1.67;1.30;;;;;;;;;;10498613;28;20076;-76
2023/09/28 03:42:23;;;;;;;1.75;1.02;;;;;;;;;;10494873;28;20040;-77
2023/09/28 03:47:26;;;;;;;2.38;1.35;;;;;;;;;;10502559;28;20068;-76
2023/09/28 03:52:30;;;;;;;2.47;1.27;;;;;;;;;;10501490;28;20704;-77
2023/09/28 03:57:35;;;;;;;1.60;1.27;;;;;;;;;;10477399;28;20063;-76
2023/09/28 04:02:39;;;;;;;1.73;1.23;;;;;;;;;;10501149;28;20090;-77
2023/09/28 04:07:43;;;;;;;3.25;1.60;;;;;;;;;;10496673;28;20463;-76
2023/09/28 04:12:48;;;;;;;1.70;1.40;;;;;;;;;;10501665;28;20040;-77
2023/09/28 04:17:51;;;;;;;2.17;1.85;;;;;;;;;;10490212;28;20822;-76
2023/09/28 04:22:54;;;;;;;2.05;1.65;;;;;;;;;;10497575;28;20072;-76
2023/09/28 04:27:59;;;;;;;2.17;1.67;;;;;;;;;;10497843;28;20124;-76
2023/09/28 04:33:02;;;;;;;2.00;1.60;;;;;;;;;;10496595;28;20045;-76
2023/09/28 04:38:07;;;;;;;1.90;1.63;;;;;;;;;;10492565;28;20045;-76
2023/09/28 04:43:12;;;;;;;1.90;1.30;;;;;;;;;;10507582;28;20618;-76
2023/09/28 04:48:21;;;;;;;1.65;1.20;;;;;;;;;;10493908;28;20041;-76
2023/09/28 04:53:25;;;;;;;1.30;1.13;;;;;;;;;;10470883;28;20467;-77
2023/09/28 04:58:29;;;;;;;2.80;1.48;;;;;;;;;;10499320;28;20165;-77
2023/09/28 05:03:33;;;;;;;2.38;1.85;;;;;;;;;;10492769;28;20045;-76
2023/09/28 05:08:36;;;;;;;2.10;1.75;;;;;;;;;;10501912;28;20120;-76
2023/09/28 05:13:41;;;;;;;1.73;1.33;;;;;;;;;;10496859;28;20048;-76
2023/09/28 05:18:44;;;;;;;2.05;1.52;;;;;;;;;;10481459;28;20094;-76
2023/09/28 05:23:48;;;;;;;1.63;1.50;;;;;;;;;;10492135;28;20044;-76
2023/09/28 05:28:52;;;;;;;1.38;1.23;;;;;;;;;;10495372;28;20059;-77
2023/09/28 05:33:55;;;;;;;1.60;1.50;;;;;;;;;;10483213;28;20039;-76
2023/09/28 05:38:59;;;;;;;1.55;1.30;;;;;;;;;;10493489;28;20041;-76
2023/09/28 05:44:04;;;;;;;2.42;1.10;;;;;;;;;;10499863;28;20036;-77
2023/09/28 05:49:07;;;;;;;1.58;1.10;;;;;;;;;;10490970;28;20045;-76
2023/09/28 05:54:11;;;;;;;1.40;1.30;;;;;;;;;;10494020;28;20082;-76
2023/09/28 05:59:15;;;;;;;1.20;1.10;;;;;;;;;;10493733;28;20068;-76
2023/09/28 06:04:19;;;;;;;1.38;1.15;;;;;;;;;;10485616;28;20433;-76
2023/09/28 06:09:22;;;;;;;1.38;1.00;;;;;;;;;;10492175;28;20040;-76
2023/09/28 06:14:27;;;;;;;1.98;1.40;;;;;;;;;;10500024;28;20040;-76
2023/09/28 06:19:30;;;;;;;2.22;1.30;;;;;;;;;;10499177;28;20049;-76
2023/09/28 06:24:35;;;;;;;1.45;1.05;;;;;;;;;;10502147;28;20051;-77
2023/09/28 06:29:39;;;;;;;1.10;1.00;;;;;;;;;;10495488;28;20040;-77
2023/09/28 06:34:44;;;;;;;1.55;0.85;;;;;;;;;;10489396;28;20124;-77
2023/09/28 06:39:47;;;;;;;2.85;1.25;;;;;;;;;;10487704;28;20040;-77
2023/09/28 06:44:51;;;;;;;3.42;0.95;;;;;;;;;;10488252;28;20044;-77
2023/09/28 06:49:56;;;;;;;2.03;1.20;;;;;;;;;;10485642;28;20040;-77
2023/09/28 06:54:59;;;;;;;2.20;1.20;;;;;;;;;;10468580;28;20037;-77
2023/09/28 07:00:08;;;;;;;2.42;1.60;;;;;;;;;;10492362;28;20055;-77
2023/09/28 07:05:13;;;;;;;1.88;1.20;;;;;;;;;;10494474;28;20428;-77
2023/09/28 07:10:17;;;;;;;1.80;1.35;;;;;;;;;;10501589;28;20043;-76
2023/09/28 07:15:22;;;;;;;1.48;1.23;;;;;;;;;;10495490;28;20086;-76
2023/09/28 07:20:26;;;;;;;2.95;1.50;;;;;;;;;;10497777;28;20047;-77
2023/09/28 07:25:30;;;;;;;3.78;1.30;;;;;;;;;;10494351;28;20052;-77
2023/09/28 07:30:36;;;;;;;1.65;1.15;;;;;;;;;;10492936;28;20083;-77
2023/09/28 07:35:39;;;;;;;6.27;1.20;;;;;;;;;;10499293;28;20044;-77
2023/09/28 07:40:43;;;;;;;2.45;0.90;;;;;;;;;;10562878;22;20141;-76
2023/09/28 07:45:51;;;;;;;1.10;1.00;;;;;;;;;;10514460;28;20044;-76
2023/09/28 07:50:54;;;;;;;1.77;1.20;;;;;;;;;;10479152;28;20131;-76
2023/09/28 07:55:58;;;;;;;1.35;1.02;;;;;;;;;;10482087;28;20051;-76
2023/09/28 08:01:03;;;;;;;1.63;1.05;;;;;;;;;;10493946;28;20103;-76
2023/09/28 08:06:09;;;;;;;1.53;0.97;;;;;;;;;;10511224;28;20498;-76
2023/09/28 08:11:15;;;;;;;4.72;1.48;;;;;;;;;;10486507;28;20078;-76
2023/09/28 08:16:20;;;;;;;2.45;1.10;;;;;;;;;;10496346;28;20047;-76
2023/09/28 08:21:24;;;;;;;0.80;0.80;;;;;;;;;;10476479;28;20489;-76
2023/09/28 08:26:27;;;;;;;0.93;0.80;;;;;;;;;;10477317;28;20036;-76
2023/09/28 08:31:32;;;;;;;1.25;0.93;;;;;;;;;;10507045;28;20064;-76
2023/09/28 08:36:36;;;;;;;1.23;1.08;;;;;;;;;;10500800;28;20057;-76
2023/09/28 08:41:44;;;;;;;1.27;1.00;;;;;;;;;;10506041;28;20051;-75
2023/09/28 08:46:51;;;;;;;1.30;0.95;;;;;;;;;;10508629;28;20032;-75
2023/09/28 08:51:55;;;;;;;1.35;1.00;;;;;;;;;;10502177;28;20041;-75
2023/09/28 08:56:59;;;;;;;2.55;1.80;;;;;;;;;;10495973;28;20040;-75
2023/09/28 09:02:06;;;;;;;3.90;1.42;;;;;;;;;;10503554;28;20131;-75
2023/09/28 09:07:10;;;;;;;2.30;1.60;;;;;;;;;;10494136;28;20048;-76
2023/09/28 09:12:13;;;;;;;1.73;1.10;;;;;;;;;;10497775;28;20386;-75
2023/09/28 09:17:17;;;;;;;1.65;1.33;;;;;;;;;;10502652;28;20060;-75
2023/09/28 09:22:28;;;;;;;2.80;1.70;;;;;;;;;;10505122;28;20042;-75
2023/09/28 09:27:33;;;;;;;1.92;1.42;;;;;;;;;;10504248;28;20439;-75
2023/09/28 09:32:42;;;;;;;1.88;1.52;;;;;;;;;;10504574;28;20385;-75
2023/09/28 09:37:53;;;;;;;2.10;1.33;;;;;;;;;;10497005;28;20051;-76
2023/09/28 09:43:05;;;;;;;2.13;1.33;;;;;;;;;;10496355;28;20044;-75
2023/09/28 09:48:11;;;;;;;2.15;1.27;;;;;;;;;;10504677;28;20052;-75
2023/09/28 09:53:16;;;;;;;2.13;1.25;;;;;;;;;;10508912;28;20329;-76
2023/09/28 09:58:27;;;;;;;1.63;1.42;;;;;;;;;;10503024;28;20036;-75
2023/09/28 10:03:32;;;;;;;1.27;0.98;;;;;;;;;;10503026;28;20051;-75
2023/09/28 10:08:36;;;;;;;3.70;1.35;;;;;;;;;;10487318;28;20052;-76
2023/09/28 10:13:41;;;;;;;1.92;1.05;;;;;;;;;;10498763;28;20047;-75
2023/09/28 10:18:49;;;;;;;1.10;1.00;;;;;;;;;;10504386;28;20044;-75
2023/09/28 10:23:55;;;;;;;2.55;1.02;;;;;;;;;;10495967;28;20063;-75
2023/09/28 10:29:03;;;;;;;1.25;0.80;;;;;;;;;;10495643;28;20044;-75
2023/09/28 10:34:09;;;;;;;1.20;1.10;;;;;;;;;;10497022;28;20064;-75
2023/09/28 10:39:14;;;;;;;2.40;1.08;;;;;;;;;;10492907;28;20497;-75
2023/09/28 10:44:20;;;;;;;2.03;1.40;;;;;;;;;;10490565;28;20059;-75
2023/09/28 10:49:27;;;;;;;2.33;1.65;;;;;;;;;;10496078;28;20490;-75
2023/09/28 10:54:30;;;;;;;2.92;1.63;;;;;;;;;;10502934;28;20071;-76
2023/09/28 10:59:33;;;;;;;2.25;1.60;;;;;;;;;;10470413;28;20032;-75
2023/09/28 11:04:41;;;;;;;3.28;1.67;;;;;;;;;;10493086;28;20040;-75
2023/09/28 11:09:53;;;;;;;1.95;1.58;;;;;;;;;;10506773;28;20049;-76
2023/09/28 11:14:58;;;;;;;1.67;1.40;;;;;;;;;;10491721;28;20059;-75
2023/09/28 11:20:03;;;;;;;3.83;1.90;;;;;;;;;;10504284;28;20037;-75
2023/09/28 11:25:07;;;;;;;;;;;;;;;;;;10498613;28;20080;-76
2023/09/28 11:30:19;;;;;;;3.03;1.60;;;;;;;;;;10491169;28;20391;-75
2023/09/28 11:35:27;;;;;;;3.20;1.80;;;;;;;;;;10491725;28;20435;-76
2023/09/28 11:40:30;;;;;;;2.38;1.70;;;;;;;;;;10471824;28;20131;-76
2023/09/28 11:45:34;;;;;;;2.30;1.45;;;;;;;;;;10489380;28;20047;-76
2023/09/28 11:50:40;;;;;;;2.17;1.30;;;;;;;;;;10503340;28;20049;-76
2023/09/28 11:55:46;;;;;;;1.27;1.00;;;;;;;;;;10496267;28;20143;-76
2023/09/28 12:00:50;;;;;;;2.85;1.60;;;;;;;;;;10504981;28;20048;-76
2023/09/28 12:05:54;;;;;;;1.98;1.45;;;;;;;;;;10508644;28;20051;-76
2023/09/28 12:10:59;;;;;;;3.13;1.77;;;;;;;;;;10484131;28;20793;-76
2023/09/28 12:16:02;;;;;;;6.60;1.80;;;;;;;;;;10480772;28;20340;-76
2023/09/28 12:21:07;;;;;;;2.75;1.42;;;;;;;;;;10498733;28;20085;-77
2023/09/28 12:26:11;;;;;;;2.43;1.70;;;;;;;;;;10498577;28;20044;-76
2023/09/28 12:31:14;;;;;;;2.15;1.63;;;;;;;;;;10500969;28;20050;-76
2023/09/28 12:36:20;;;;;;;2.60;1.50;;;;;;;;;;10494693;28;20122;-76
2023/09/28 12:41:24;;;;;;;2.40;1.92;;;;;;;;;;10500849;28;20052;-76
2023/09/28 12:46:27;;;;;;;2.75;1.75;;;;;;;;;;10480361;28;20116;-76
2023/09/28 12:51:32;;;;;;;3.47;1.42;;;;;;;;;;10500115;28;20040;-76
2023/09/28 12:56:35;;;;;;;2.43;1.77;;;;;;;;;;10502259;28;20056;-76
2023/09/28 13:01:38;;;;;;;2.38;1.85;;;;;;;;;;10501731;28;20068;-76
2023/09/28 13:06:43;;;;;;;3.78;1.50;;;;;;;;;;10508317;28;20124;-76
2023/09/28 13:11:46;;;;;;;3.00;1.70;;;;;;;;;;10489051;28;20182;-76
2023/09/28 13:16:50;;;;;;;2.63;1.60;;;;;;;;;;10499803;28;20045;-76
2023/09/28 13:21:56;;;;;;;2.42;1.60;;;;;;;;;;10502039;28;20044;-75
2023/09/28 13:27:01;;;;;;;2.20;1.50;;;;;;;;;;10499014;28;20524;-76
2023/09/28 13:32:07;;;;;;;5.03;1.42;;;;;;;;;;10495726;28;20041;-76
2023/09/28 13:37:12;;;;;;;3.00;1.50;;;;;;;;;;10484821;28;20072;-76
2023/09/28 13:42:16;;;;;;;2.35;1.30;;;;;;;;;;10525718;22;20054;-76
2023/09/28 13:47:19;;;;;;;1.58;1.40;;;;;;;;;;10530389;28;20114;-75
2023/09/28 13:52:26;;;;;;;2.88;1.13;;;;;;;;;;10541780;28;20042;-75
2023/09/28 13:57:29;;;;;;;2.78;1.60;;;;;;;;;;10541617;28;20050;-76
2023/09/28 14:02:33;;;;;;;1.90;1.33;;;;;;;;;;10545911;28;20040;-76
2023/09/28 14:07:37;;;;;;;2.67;1.30;;;;;;;;;;10541313;28;20168;-76
2023/09/28 14:12:41;;;;;;;1.63;1.23;;;;;;;;;;10515491;28;20528;-76
2023/09/28 14:17:44;;;;;;;1.40;1.10;;;;;;;;;;10516418;28;20094;-76
2023/09/28 14:22:49;;;;;;;1.48;1.05;;;;;;;;;;10521076;28;20051;-76
2023/09/28 14:27:53;;;;;;;2.88;1.38;;;;;;;;;;10520341;28;20388;-75
2023/09/28 14:32:56;;;;;;;1.35;0.95;;;;;;;;;;10520306;28;20489;-76
2023/09/28 14:38:01;;;;;;;1.25;1.15;;;;;;;;;;10522313;28;20059;-76
2023/09/28 14:43:04;;;;;;;2.80;1.02;;;;;;;;;;10524726;28;20052;-76
2023/09/28 14:48:08;;;;;;;1.65;1.00;;;;;;;;;;10517906;28;20052;-76
2023/09/28 14:53:15;;;;;;;1.17;0.90;;;;;;;;;;10521425;28;20044;-76
2023/09/28 14:58:19;;;;;;;1.42;1.00;;;;;;;;;;10523825;28;20039;-76
2023/09/28 15:03:23;;;;;;;1.75;1.15;;;;;;;;;;10526872;28;20037;-76
2023/09/28 15:08:27;;;;;;;1.52;1.13;;;;;;;;;;10523810;28;20036;-76
2023/09/28 15:13:32;;;;;;;1.38;1.02;;;;;;;;;;10526568;28;20059;-76
2023/09/28 15:18:35;;;;;;;1.67;1.13;;;;;;;;;;10524023;28;20070;-76
2023/09/28 15:23:40;;;;;;;1.67;1.20;;;;;;;;;;10528116;28;20044;-76
2023/09/28 15:28:44;;;;;;;3.65;1.25;;;;;;;;;;10521348;28;20039;-76
2023/09/28 15:33:47;;;;;;;2.35;1.27;;;;;;;;;;10518017;28;20044;-76
2023/09/28 15:38:52;;;;;;;1.30;1.10;;;;;;;;;;10515318;28;20097;-76
2023/09/28 15:43:55;;;;;;;1.13;0.90;;;;;;;;;;10526816;28;20045;-76
2023/09/28 15:49:00;;;;;;;1.42;1.00;;;;;;;;;;10525747;28;20044;-76
2023/09/28 15:54:05;;;;;;;3.92;1.20;;;;;;;;;;10524783;28;20118;-76
2023/09/28 15:59:08;;;;;;;3.60;1.08;;;;;;;;;;10524085;28;20050;-76
2023/09/28 16:04:11;;;;;;;1.63;1.10;;;;;;;;;;10521284;28;20123;-76
2023/09/28 16:09:16;;;;;;;1.70;0.98;;;;;;;;;;10529312;28;20094;-76
2023/09/28 16:14:19;;;;;;;3.80;1.17;;;;;;;;;;10526590;28;20040;-76
2023/09/28 16:19:23;;;;;;;1.92;1.33;;;;;;;;;;10533570;28;20043;-76
2023/09/28 16:24:27;;;;;;;1.33;0.90;;;;;;;;;;10527941;28;20675;-76
2023/09/28 16:29:31;;;;;;;3.13;1.10;;;;;;;;;;10524974;28;20055;-76
2023/09/28 16:34:35;;;;;;;2.60;1.35;;;;;;;;;;10526572;28;20279;-76
2023/09/28 16:39:39;;;;;;;1.30;0.90;;;;;;;;;;10532222;28;20680;-76
2023/09/28 16:44:43;;;;;;;0.97;0.80;;;;;;;;;;10506671;28;20048;-76
2023/09/28 16:49:46;;;;;;;1.13;0.88;;;;;;;;;;10529675;28;20151;-76
2023/09/28 16:54:51;;;;;;;1.10;0.88;;;;;;;;;;10529241;28;20040;-77
2023/09/28 16:59:54;;;;;;;0.93;0.80;;;;;;;;;;10524094;28;20062;-76
2023/09/28 17:04:57;;;;;;;1.58;0.93;;;;;;;;;;10522447;28;20634;-76
2023/09/28 17:10:02;;;;;;;1.13;0.80;;;;;;;;;;10527329;28;20036;-76
2023/09/28 17:15:06;;;;;;;1.60;1.23;;;;;;;;;;10527047;28;20032;-76
2023/09/28 17:20:11;;;;;;;1.95;0.90;;;;;;;;;;10522187;28;20052;-77
2023/09/28 17:25:16;;;;;;;3.42;1.25;;;;;;;;;;10518167;28;20043;-76
2023/09/28 17:30:19;;;;;;;2.95;1.25;;;;;;;;;;10520628;28;20067;-76
2023/09/28 17:35:24;;;;;;;3.92;1.30;;;;;;;;;;10521997;28;20040;-76
2023/09/28 17:40:29;;;;;;;5.57;1.40;;;;;;;;;;10533991;28;20101;-76
2023/09/28 17:45:32;;;;;;;1.75;1.38;;;;;;;;;;10527828;28;20141;-76
2023/09/28 17:50:36;;;;;;;1.73;1.35;;;;;;;;;;10523930;28;20051;-76
2023/09/28 17:55:41;;;;;;;2.63;1.27;;;;;;;;;;10523591;28;20035;-76
2023/09/28 18:00:45;;;;;;;1.47;1.10;;;;;;;;;;10520624;28;20067;-76
2023/09/28 18:05:48;;;;;;;1.67;1.23;;;;;;;;;;10518642;28;20037;-76
2023/09/28 18:10:53;;;;;;;2.88;1.50;;;;;;;;;;10514930;28;20048;-76
2023/09/28 18:15:57;;;;;;;1.20;0.90;;;;;;;;;;10518669;28;20041;-76
2023/09/28 18:21:00;;;;;;;3.13;1.33;;;;;;;;;;10519507;28;20127;-76
2023/09/28 18:26:04;;;;;;;2.00;1.30;;;;;;;;;;10525176;28;20036;-76
2023/09/28 18:31:09;;;;;;;1.67;1.25;;;;;;;;;;10510575;28;20051;-76
2023/09/28 18:36:12;;;;;;;2.38;1.30;;;;;;;;;;10528438;28;20050;-76
2023/09/28 18:41:17;;;;;;;2.20;1.38;;;;;;;;;;10528001;28;20043;-76
2023/09/28 18:46:21;;;;;;;2.17;1.33;;;;;;;;;;10524593;28;20068;-76
2023/09/28 18:51:24;;;;;;;1.70;1.38;;;;;;;;;;10521070;28;20420;-76
2023/09/28 18:56:29;;;;;;;1.85;1.23;;;;;;;;;;10529262;28;20515;-76
2023/09/28 19:01:32;;;;;;;2.97;1.40;;;;;;;;;;10506225;28;20541;-76
2023/09/28 19:06:36;;;;;;;1.27;1.17;;;;;;;;;;10528342;28;20389;-76
2023/09/28 19:11:42;;;;;;;3.47;1.50;;;;;;;;;;10499321;28;20040;-76
2023/09/28 19:16:46;;;;;;;5.18;1.42;;;;;;;;;;10527154;28;20036;-76
2023/09/28 19:21:50;;;;;;;3.58;1.40;;;;;;;;;;10519732;28;20126;-76
2023/09/28 19:26:55;;;;;;;2.95;1.20;;;;;;;;;;10526155;28;20039;-76
2023/09/28 19:31:59;;;;;;;3.03;1.50;;;;;;;;;;10520324;28;20119;-76
2023/09/28 19:37:03;;;;;;;2.15;1.30;;;;;;;;;;10515859;28;20036;-76
2023/09/28 19:42:08;;;;;;;2.97;1.52;;;;;;;;;;10545944;22;20061;-76
2023/09/28 19:47:12;;;;;;;2.40;1.35;;;;;;;;;;10477456;28;20102;-76
2023/09/28 19:52:15;;;;;;;2.08;1.30;;;;;;;;;;10450515;28;20096;-76
2023/09/28 19:57:19;;;;;;;1.80;1.27;;;;;;;;;;10461084;28;20292;-77
2023/09/28 20:02:23;;;;;;;2.00;1.42;;;;;;;;;;10431487;28;20051;-76
2023/09/28 20:07:27;;;;;;;1.88;1.23;;;;;;;;;;10461765;28;20041;-77
2023/09/28 20:12:31;;;;;;;2.92;2.05;;;;;;;;;;10475120;28;20044;-77
2023/09/28 20:17:35;;;;;;;2.15;1.50;;;;;;;;;;10488556;28;20120;-77
2023/09/28 20:22:38;;;;;;;2.75;1.38;;;;;;;;;;10464284;28;20654;-76
2023/09/28 20:27:49;;;;;;;2.95;1.45;;;;;;;;;;10467067;28;20267;-77
2023/09/28 20:32:52;;;;;;;3.60;1.50;;;;;;;;;;10465741;28;20068;-77
2023/09/28 20:37:56;;;;;;;1.55;1.25;;;;;;;;;;10466879;28;20041;-77
2023/09/28 20:43:00;;;;;;;2.33;1.52;;;;;;;;;;10472033;28;20052;-77
2023/09/28 20:48:04;;;;;;;3.55;1.67;;;;;;;;;;10472914;28;20071;-77
2023/09/28 20:53:07;;;;;;;1.42;1.08;;;;;;;;;;10474045;28;20128;-76
2023/09/28 20:58:11;;;;;;;2.63;1.58;;;;;;;;;;10480308;28;20050;-77
2023/09/28 21:03:15;;;;;;;1.95;1.52;;;;;;;;;;10469973;28;20166;-77
2023/09/28 21:08:18;;;;;;;1.60;1.50;;;;;;;;;;10475372;28;20161;-76
2023/09/28 21:13:23;;;;;;;1.83;1.20;;;;;;;;;;10465670;28;20048;-76
2023/09/28 21:18:26;;;;;;;1.67;1.40;;;;;;;;;;10455063;28;20075;-76
2023/09/28 21:23:29;;;;;;;1.60;1.40;;;;;;;;;;10466288;28;20052;-76
2023/09/28 21:28:38;;;;;;;3.05;1.30;;;;;;;;;;10466802;28;20058;-77
2023/09/28 21:33:41;;;;;;;3.20;1.30;;;;;;;;;;10468738;28;20056;-76
2023/09/28 21:38:45;;;;;;;3.45;1.40;;;;;;;;;;10475565;28;20044;-76
2023/09/28 21:43:49;;;;;;;3.20;1.38;;;;;;;;;;10467252;28;20630;-76
2023/09/28 21:48:52;;;;;;;1.38;1.25;;;;;;;;;;10475751;28;20056;-76
2023/09/28 21:53:56;;;;;;;1.38;1.15;;;;;;;;;;10475848;28;20051;-76
2023/09/28 21:59:00;;;;;;;2.22;1.25;;;;;;;;;;10470019;28;20064;-76
2023/09/28 22:04:04;;;;;;;2.08;1.50;;;;;;;;;;10469091;28;20059;-76
2023/09/28 22:09:07;;;;;;;3.30;1.30;;;;;;;;;;10472132;28;20076;-76
2023/09/28 22:14:12;;;;;;;1.92;1.50;;;;;;;;;;10465159;28;20040;-76
2023/09/28 22:19:15;;;;;;;6.07;1.50;;;;;;;;;;10447231;28;20037;-76
2023/09/28 22:24:19;;;;;;;2.15;1.90;;;;;;;;;;10468774;28;20045;-77
2023/09/28 22:29:23;;;;;;;2.40;1.45;;;;;;;;;;10467679;28;20517;-76
2023/09/28 22:34:27;;;;;;;2.50;1.65;;;;;;;;;;10467583;28;20049;-76
2023/09/28 22:39:30;;;;;;;2.38;1.23;;;;;;;;;;10468636;28;20615;-76
2023/09/28 22:44:34;;;;;;;4.45;1.60;;;;;;;;;;10470535;28;20051;-76
2023/09/28 22:49:38;;;;;;;1.98;1.27;;;;;;;;;;10480926;28;20045;-76
2023/09/28 22:54:41;;;;;;;2.03;1.40;;;;;;;;;;10470935;28;20051;-76
2023/09/28 22:59:46;;;;;;;1.98;1.23;;;;;;;;;;10475125;28;20044;-76
2023/09/28 23:04:51;;;;;;;1.55;1.02;;;;;;;;;;10469193;28;20523;-76
2023/09/28 23:09:55;;;;;;;2.03;1.20;;;;;;;;;;10466747;28;20067;-76
2023/09/28 23:14:59;;;;;;;2.58;1.40;;;;;;;;;;10466441;28;20037;-76
2023/09/28 23:20:09;;;;;;;2.35;1.23;;;;;;;;;;10464820;28;20055;-76
2023/09/28 23:25:13;;;;;;;3.00;1.30;;;;;;;;;;10474644;28;20140;-76
2023/09/28 23:30:20;;;;;;;1.65;1.45;;;;;;;;;;10466725;28;20041;-76
2023/09/28 23:35:23;;;;;;;2.78;1.33;;;;;;;;;;10467856;28;20045;-76
2023/09/28 23:40:27;;;;;;;1.77;1.40;;;;;;;;;;10471453;28;20464;-76
2023/09/28 23:45:34;;;;;;;1.40;1.27;;;;;;;;;;10478909;28;20148;-77
2023/09/28 23:50:37;;;;;;;2.00;1.55;;;;;;;;;;10473962;28;20474;-77
2023/09/28 23:55:40;;;;;;;2.13;1.42;;;;;;;;;;10471035;28;20040;-76
